McGregor, North Dakota
Current Conditions -  °F | °C
As of 8:15 AM on Thursday 18 Dec 2014 (Local Time) from KD60 Reporting Station
Overcast Overcast  
Wind Chill:   Ceiling: 800
Heat Index: 18°   Visibility: 7mi
Dew Point: 18°   Wind: 9mph
Humidity: 100%   Direction: 170°S
Pressure: 30.02"   Gusts: NA
Location:  48.6°N, 102.93°W
Report Text: KD60 181415Z AUTO 17008KT 7SM OVC008 M08/M08 A3002 RMK AO2
Loading
Personal Weather Stations






























Interactive Weather Map New forecast layout! Learn more

10-Day Weather Forecast

Advertisements
Track Severe Weather on mobile